Time;durP1;ratioP1;P1;durP2;ratioP2;P2;SDS_P1;SDS_P2;PMS_P1;PMS_P2;Temp;Humidity;BMP_temperature;BMP_pressure;BME280_temperature;BME280_humidity;BME280_pressure;Samples;Min_cycle;Max_cycle;Signal;HPM_P1;HPM_P2
2023/04/02 00:00:20;;;;;;;1.52;1.05;;;;;;;10.43;89.93;96359.44;4975836;28;20040;-78
2023/04/02 00:02:53;;;;;;;1.77;1.20;;;;;;;10.47;90.03;96356.38;4993296;28;20092;-78
2023/04/02 00:05:30;;;;;;;5.05;1.00;;;;;;;10.49;89.28;96359.75;4974519;28;20057;-77
2023/04/02 00:08:09;;;;;;;1.60;1.38;;;;;;;10.45;89.70;96354.78;4975753;28;20165;-78
2023/04/02 00:10:59;;;;;;;2.00;1.10;;;;;;;10.48;89.90;96359.91;4992865;28;20030;-77
2023/04/02 00:13:28;;;;;;;1.85;1.35;;;;;;;10.45;90.00;96352.97;4956314;28;20076;-78
2023/04/02 00:15:56;;;;;;;3.28;1.55;;;;;;;10.48;87.97;96344.72;4975915;28;20034;-78
2023/04/02 00:18:22;;;;;;;1.60;1.10;;;;;;;10.61;87.82;96347.25;4960237;28;20030;-78
2023/04/02 00:20:54;;;;;;;3.15;0.90;;;;;;;10.70;84.93;96335.78;4992877;28;20056;-78
2023/04/02 00:23:20;;;;;;;1.85;1.35;;;;;;;10.74;85.96;96342.56;4959438;28;20165;-78
2023/04/02 00:25:46;;;;;;;0.57;0.57;;;;;;;10.78;84.13;96341.34;4975638;28;20037;-78
2023/04/02 00:28:20;;;;;;;1.73;1.13;;;;;;;10.76;84.91;96336.16;4992780;28;20414;-78
2023/04/02 00:30:58;;;;;;;1.52;1.20;;;;;;;10.73;85.30;96330.19;4959192;28;20038;-78
2023/04/02 00:33:26;;;;;;;1.75;0.95;;;;;;;10.66;84.96;96327.16;4958930;28;20030;-78
2023/04/02 00:35:53;;;;;;;2.95;0.98;;;;;;;10.77;84.27;96328.94;4958771;28;20125;-78
2023/04/02 00:38:32;;;;;;;1.27;0.80;;;;;;;10.76;85.44;96346.84;4958254;28;20034;-77
2023/04/02 00:41:01;;;;;;;0.95;0.57;;;;;;;10.77;85.06;96345.84;4958745;28;20110;-77
2023/04/02 00:43:30;;;;;;;3.10;0.90;;;;;;;10.79;85.33;96345.72;4975190;28;20026;-77
2023/04/02 00:46:02;;;;;;;2.50;0.60;;;;;;;10.81;83.21;96333.94;4974427;28;20034;-78
2023/04/02 00:48:30;;;;;;;;;;;;;;;10.88;83.14;96348.50;4959250;28;20026;-77
2023/04/02 00:50:59;;;;;;;1.10;0.80;;;;;;;10.83;84.51;96355.19;4975220;28;19967;-78
2023/04/02 00:53:32;;;;;;;2.78;0.75;;;;;;;10.82;84.05;96351.69;4958831;28;20034;-79
2023/04/02 00:56:03;;;;;;;0.88;0.80;;;;;;;10.74;84.86;96342.56;4974795;28;20049;-79
2023/04/02 00:58:31;;;;;;;1.63;0.80;;;;;;;10.74;84.84;96348.78;4974817;28;20109;-76
2023/04/02 01:00:58;;;;;;;2.78;1.20;;;;;;;10.73;85.94;96346.25;4958230;28;20041;-77
2023/04/02 01:03:28;;;;;;;1.10;0.82;;;;;;;10.70;84.51;96341.16;4992117;28;20394;-77
2023/04/02 01:06:15;;;;;;;3.50;0.75;;;;;;;10.71;83.81;96337.47;4974521;28;20037;-78
2023/04/02 01:09:09;;;;;;;4.20;0.77;;;;;;;10.73;84.57;96336.41;4958744;28;20034;-77
2023/04/02 01:11:44;;;;;;;2.10;1.10;;;;;;;10.69;85.11;96336.75;4991754;28;20030;-78
2023/04/02 01:14:20;;;;;;;1.55;1.00;;;;;;;10.64;86.26;96342.47;4974229;28;20065;-76
2023/04/02 01:16:49;;;;;;;2.58;1.10;;;;;;;10.69;84.53;96345.63;4974371;28;20106;-77
2023/04/02 01:19:30;;;;;;;3.25;1.92;;;;;;;10.59;86.56;96350.03;4973867;28;20113;-77
2023/04/02 01:22:24;;;;;;;1.10;0.85;;;;;;;10.62;83.87;96338.22;4991541;28;20026;-79
2023/04/02 01:24:49;;;;;;;2.30;1.27;;;;;;;10.60;85.37;96350.88;4958397;28;20386;-77
2023/04/02 01:27:23;;;;;;;3.17;1.27;;;;;;;10.61;84.76;96350.75;4957583;28;20052;-77
2023/04/02 01:29:55;;;;;;;1.75;1.17;;;;;;;10.58;84.50;96355.50;4974346;28;20073;-78
2023/04/02 01:32:22;;;;;;;3.53;1.15;;;;;;;10.69;83.66;96363.50;4956533;28;20141;-77
2023/04/02 01:34:49;;;;;;;1.55;1.00;;;;;;;10.63;84.65;96364.84;4954795;28;20047;-78
2023/04/02 01:37:21;;;;;;;2.67;1.50;;;;;;;10.64;85.06;96368.38;4969788;28;20109;-78
2023/04/02 01:40:09;;;;;;;3.35;2.00;;;;;;;10.60;85.01;96366.91;4972487;28;20026;-77
2023/04/02 01:43:20;;;;;;;1.75;1.20;;;;;;;10.59;85.68;96366.06;4939180;28;20097;-78
2023/04/02 01:45:45;;;;;;;2.38;1.00;;;;;;;10.59;85.03;96365.22;4967108;28;20027;-76
2023/04/02 01:48:21;;;;;;;0.98;0.82;;;;;;;10.58;85.53;96358.19;4954810;28;20030;-78
2023/04/02 01:50:48;;;;;;;2.17;0.70;;;;;;;10.54;85.70;96367.41;4938810;28;20026;-78
2023/04/02 01:53:18;;;;;;;2.03;0.70;;;;;;;10.59;85.07;96360.72;4938349;28;20027;-77
2023/04/02 01:55:52;;;;;;;1.75;1.10;;;;;;;10.61;85.81;96371.31;4938734;28;20041;-77
2023/04/02 01:58:26;;;;;;;1.17;0.80;;;;;;;10.53;85.60;96355.00;4954601;28;20042;-78
2023/04/02 02:00:54;;;;;;;0.70;0.60;;;;;;;10.54;85.19;96356.72;4938831;28;20038;-78
2023/04/02 02:03:20;;;;;;;0.70;0.55;;;;;;;10.51;84.80;96356.97;4971825;28;20058;-77
2023/04/02 02:05:46;;;;;;;1.08;0.90;;;;;;;10.49;85.59;96364.28;4938462;28;20431;-77
2023/04/02 02:08:24;;;;;;;2.53;0.90;;;;;;;10.45;86.38;96361.00;4954538;28;20042;-77
2023/04/02 02:10:49;;;;;;;1.30;0.80;;;;;;;10.40;85.83;96351.66;4954425;28;20026;-77
2023/04/02 02:13:15;;;;;;;0.93;0.77;;;;;;;10.46;85.69;96361.84;4938476;28;20162;-77
2023/04/02 02:15:41;;;;;;;1.10;0.70;;;;;;;10.34;86.63;96353.81;4938426;28;20101;-78
2023/04/02 02:18:10;;;;;;;1.23;0.90;;;;;;;10.30;87.79;96360.38;4957350;28;20371;-77
2023/04/02 02:20:35;;;;;;;10.63;1.35;;;;;;;10.29;88.66;96369.38;4941924;28;20462;-77
2023/04/02 02:23:03;;;;;;;1.27;0.90;;;;;;;10.27;90.44;96367.81;4958113;28;20082;-77
2023/04/02 02:25:31;;;;;;;0.95;0.82;;;;;;;10.29;88.85;96374.72;4958084;28;20490;-77
2023/04/02 02:28:10;;;;;;;1.65;1.30;;;;;;;10.26;91.16;96379.47;4958053;28;20081;-78
2023/04/02 02:30:38;;;;;;;1.33;1.00;;;;;;;10.18;93.43;96382.72;4941644;28;20030;-77
2023/04/02 02:33:06;;;;;;;1.10;0.80;;;;;;;10.17;91.76;96378.38;4975066;28;20130;-77
2023/04/02 02:35:49;;;;;;;1.00;0.80;;;;;;;10.15;91.16;96376.81;4961159;28;20051;-78
2023/04/02 02:38:24;;;;;;;1.10;0.95;;;;;;;10.11;92.45;96375.31;4994549;28;20112;-78
2023/04/02 02:40:53;;;;;;;1.85;1.00;;;;;;;9.96;96.03;96381.84;4957561;28;20120;-77
2023/04/02 02:43:19;;;;;;;1.35;1.05;;;;;;;9.83;97.62;96387.28;4994545;28;20037;-78
2023/04/02 02:45:46;;;;;;;1.52;0.90;;;;;;;9.67;99.96;96398.31;4960769;28;20026;-77
2023/04/02 02:48:17;;;;;;;1.58;1.00;;;;;;;9.60;100.00;96402.41;4977150;28;20022;-77
2023/04/02 02:50:43;;;;;;;6.45;0.88;;;;;;;9.52;100.00;96411.97;4968742;28;20557;-77
2023/04/02 02:53:20;;;;;;;1.60;0.93;;;;;;;9.40;100.00;96421.75;4976851;28;20019;-77
2023/04/02 02:55:49;;;;;;;3.05;1.30;;;;;;;9.23;100.00;96430.16;4976876;28;20576;-77
2023/04/02 02:58:22;;;;;;;2.67;1.17;;;;;;;9.19;100.00;96436.72;4960742;28;20086;-77
2023/04/02 03:00:48;;;;;;;5.22;1.17;;;;;;;9.13;100.00;96443.34;4960503;28;20136;-77
2023/04/02 03:03:16;;;;;;;3.15;1.00;;;;;;;9.04;100.00;96440.50;4976632;28;20074;-78
2023/04/02 03:05:43;;;;;;;2.53;1.10;;;;;;;9.03;100.00;96450.31;4976540;28;20497;-78
2023/04/02 03:08:13;;;;;;;2.25;1.30;;;;;;;8.99;100.00;96440.84;4994178;28;20022;-77
2023/04/02 03:11:22;;;;;;;1.95;1.40;;;;;;;8.93;100.00;96449.28;4976771;28;20102;-78
2023/04/02 03:13:48;;;;;;;3.17;1.15;;;;;;;8.88;100.00;96459.44;4880407;29;20100;-78
2023/04/02 03:16:16;;;;;;;5.93;0.93;;;;;;;8.86;100.00;96453.34;4880464;29;20037;-77
2023/04/02 03:18:57;;;;;;;3.28;1.20;;;;;;;8.77;100.00;96454.03;4946202;28;20422;-77
2023/04/02 03:21:44;;;;;;;1.27;1.00;;;;;;;8.79;100.00;96462.78;4968196;28;20034;-76
2023/04/02 03:24:22;;;;;;;3.08;1.10;;;;;;;8.66;100.00;96461.94;4976053;28;20026;-77
2023/04/02 03:26:53;;;;;;;8.68;1.65;;;;;;;8.66;100.00;96461.94;4976182;28;20037;-77
2023/04/02 03:29:21;;;;;;;2.58;1.30;;;;;;;8.61;100.00;96464.09;4975109;28;20026;-77
2023/04/02 03:31:52;;;;;;;3.92;0.98;;;;;;;8.51;100.00;96463.06;4976463;28;20501;-80
2023/04/02 03:34:31;;;;;;;2.47;2.00;;;;;;;8.51;100.00;96455.91;4958905;28;20062;-78
2023/04/02 03:37:21;;;;;;;6.75;1.52;;;;;;;8.47;100.00;96474.88;4976638;28;20085;-78
2023/04/02 03:39:59;;;;;;;8.68;1.38;;;;;;;8.41;100.00;96467.31;4992064;28;20482;-77
2023/04/02 03:42:27;;;;;;;1.85;1.30;;;;;;;8.40;100.00;96474.47;4960005;28;20026;-79
2023/04/02 03:45:02;;;;;;;3.70;1.60;;;;;;;8.39;100.00;96475.44;4975969;28;20410;-77
2023/04/02 03:47:35;;;;;;;4.28;1.40;;;;;;;8.38;100.00;96475.53;4976026;28;20023;-77
2023/04/02 03:50:10;;;;;;;;;;;;;;;8.32;100.00;96494.59;4960215;28;20026;-76
2023/04/02 03:52:36;;;;;;;6.28;1.55;;;;;;;8.16;100.00;96497.44;4972916;28;20007;-77
2023/04/02 03:55:21;;;;;;;5.30;1.70;;;;;;;8.05;100.00;96495.53;4975770;28;20483;-77
2023/04/02 03:58:04;;;;;;;1.75;1.20;;;;;;;7.99;100.00;96493.31;4957692;28;20030;-76
2023/04/02 04:00:42;;;;;;;3.60;1.10;;;;;;;7.93;100.00;96488.41;4975548;28;20045;-77
2023/04/02 04:03:14;;;;;;;1.50;1.00;;;;;;;7.91;100.00;96503.59;4993176;28;20041;-76
2023/04/02 04:05:48;;;;;;;2.17;0.90;;;;;;;7.89;100.00;96508.19;4975716;28;20081;-77
2023/04/02 04:08:24;;;;;;;1.45;1.30;;;;;;;7.84;100.00;96505.00;4975815;28;20030;-77
2023/04/02 04:10:55;;;;;;;3.80;1.80;;;;;;;7.80;100.00;96497.31;4959202;28;20079;-77
2023/04/02 04:14:00;;;;;;;3.17;1.60;;;;;;;7.78;100.00;96502.75;4975501;28;20205;-77
2023/04/02 04:16:38;;;;;;;3.65;1.80;;;;;;;7.77;100.00;96518.81;4882182;28;20049;-76
2023/04/02 04:19:16;;;;;;;3.95;2.13;;;;;;;7.75;100.00;96518.06;4955202;28;20470;-76
2023/04/02 04:21:44;;;;;;;12.05;3.35;;;;;;;7.78;100.00;96509.88;4975326;28;20033;-77
2023/04/02 04:24:23;;;;;;;5.28;2.88;;;;;;;7.78;100.00;96508.09;4959246;28;20055;-77
2023/04/02 04:26:52;;;;;;;5.55;2.60;;;;;;;7.79;100.00;96517.75;4953893;28;20023;-77
2023/04/02 04:29:39;;;;;;;3.40;2.70;;;;;;;7.81;100.00;96530.97;4992408;28;20030;-76
2023/04/02 04:32:15;;;;;;;4.13;2.60;;;;;;;7.82;100.00;96527.34;4992498;28;20088;-77
2023/04/02 04:34:45;;;;;;;6.32;2.30;;;;;;;7.80;100.00;96522.13;4976145;28;20031;-77
2023/04/02 04:37:24;;;;;;;6.20;2.28;;;;;;;7.79;100.00;96540.84;4959262;28;20050;-76
2023/04/02 04:39:58;;;;;;;5.78;1.50;;;;;;;7.74;100.00;96541.19;4975016;28;20037;-77
2023/04/02 04:42:27;;;;;;;5.30;1.98;;;;;;;7.78;100.00;96536.50;4958738;28;20023;-76
2023/04/02 04:44:58;;;;;;;3.90;2.08;;;;;;;7.81;100.00;96544.28;4959024;28;20092;-74
2023/04/02 04:47:36;;;;;;;70.18;20.48;;;;;;;7.82;100.00;96546.81;4992640;28;20050;-74
2023/04/02 04:50:13;;;;;;;26.67;9.82;;;;;;;7.90;100.00;96535.69;4957268;28;20065;-75
2023/04/02 04:52:41;;;;;;;4.60;2.80;;;;;;;8.09;100.00;96546.78;4992621;28;20030;-75
2023/04/02 04:55:31;;;;;;;7.53;3.05;;;;;;;8.26;100.00;96553.59;4974863;28;20041;-75
2023/04/02 04:58:00;;;;;;;4.63;1.98;;;;;;;8.50;100.00;96549.28;4955506;28;20045;-75
2023/04/02 05:00:50;;;;;;;5.93;3.20;;;;;;;8.98;100.00;96548.47;4971936;28;20379;-75
2023/04/02 05:03:47;;;;;;;8.73;3.00;;;;;;;9.70;100.00;96536.91;4984463;28;20030;-77
2023/04/02 05:06:13;;;;;;;3.15;1.40;;;;;;;10.44;100.00;96532.19;4974782;28;20431;-76
2023/04/02 05:08:43;;;;;;;1.65;1.08;;;;;;;10.69;100.00;96516.78;4974858;28;20041;-75
2023/04/02 05:11:55;;;;;;;2.25;1.30;;;;;;;10.83;100.00;96513.84;4974650;28;20034;-77
2023/04/02 05:14:25;;;;;;;5.40;1.58;;;;;;;11.05;99.35;96517.50;4988889;28;20212;-76
2023/04/02 05:17:04;;;;;;;2.72;1.40;;;;;;;11.60;97.34;96512.03;4958389;28;20402;-75
2023/04/02 05:19:36;;;;;;;7.70;1.95;;;;;;;11.86;94.42;96505.41;4985231;28;20037;-75
2023/04/02 05:22:25;;;;;;;3.30;1.13;;;;;;;12.02;88.50;96499.59;4949583;28;20061;-75
2023/04/02 05:25:08;;;;;;;4.03;1.52;;;;;;;12.21;86.80;96499.72;4943887;28;20042;-76
2023/04/02 05:27:58;;;;;;;2.72;1.60;;;;;;;12.63;83.63;96499.69;4968152;28;20026;-74
2023/04/02 05:30:24;;;;;;;2.83;1.58;;;;;;;12.98;82.00;96494.78;4984248;28;20384;-74
2023/04/02 05:32:56;;;;;;;6.75;1.42;;;;;;;13.58;77.01;96502.75;4974535;28;20104;-75
2023/04/02 05:35:31;;;;;;;3.22;1.65;;;;;;;14.57;70.02;96505.16;4974391;28;20476;-76
2023/04/02 05:37:58;;;;;;;4.45;2.33;;;;;;;15.77;63.63;96498.81;4991901;28;20030;-76
2023/04/02 05:40:38;;;;;;;6.05;3.92;;;;;;;17.09;58.09;96493.31;4974937;28;20109;-85
2023/04/02 05:43:08;;;;;;;7.40;4.32;;;;;;;18.12;53.57;96485.72;4958003;28;20034;-76
2023/04/02 05:45:38;;;;;;;9.43;5.15;;;;;;;19.25;50.47;96473.97;4958093;28;20045;-77
2023/04/02 05:48:19;;;;;;;5.40;3.80;;;;;;;19.88;46.97;96450.28;4965844;28;20034;-75
2023/04/02 05:50:48;;;;;;;7.88;4.45;;;;;;;20.52;46.23;96442.69;4957897;28;20613;-76
2023/04/02 05:53:23;;;;;;;5.70;4.15;;;;;;;21.37;44.70;96443.19;4977944;28;20026;-75
2023/04/02 05:55:54;;;;;;;9.50;3.90;;;;;;;21.53;43.64;96437.53;4995692;28;20517;-75
2023/04/02 05:58:34;;;;;;;6.40;3.90;;;;;;;21.99;41.71;96429.94;4995251;28;20037;-73
2023/04/02 06:01:14;;;;;;;8.05;4.53;;;;;;;21.42;42.24;96414.34;4978186;28;20505;-76
2023/04/02 06:04:10;;;;;;;8.32;4.22;;;;;;;21.68;41.84;96427.47;4971742;28;20034;-76
2023/04/02 06:06:40;;;;;;;11.45;5.38;;;;;;;22.73;40.80;96431.31;4940919;28;20130;-76
2023/04/02 06:09:28;;;;;;;8.43;4.95;;;;;;;23.68;39.40;96432.34;4995040;28;20383;-76
2023/04/02 06:12:18;;;;;;;6.68;3.10;;;;;;;23.67;37.81;96413.41;4977619;28;20026;-76
2023/04/02 06:14:45;;;;;;;7.72;3.55;;;;;;;23.71;37.23;96403.78;4967517;28;20073;-78
2023/04/02 06:17:14;;;;;;;3.88;2.83;;;;;;;23.93;35.99;96396.28;4961403;28;20061;-76
2023/04/02 06:19:40;;;;;;;7.82;3.03;;;;;;;24.05;36.59;96395.47;4961458;28;20038;-77
2023/04/02 06:22:23;;;;;;;4.70;2.80;;;;;;;23.53;35.76;96385.19;4961118;28;20399;-77
2023/04/02 06:24:54;;;;;;;11.82;6.80;;;;;;;22.41;35.90;96348.19;4977608;28;20125;-76
2023/04/02 06:27:21;;;;;;;12.82;8.13;;;;;;;22.34;36.91;96371.81;4977234;28;20154;-77
2023/04/02 06:29:51;;;;;;;5.00;3.45;;;;;;;22.48;36.86;96362.72;4961455;28;20108;-76
2023/04/02 06:32:18;;;;;;;29.60;16.98;;;;;;;23.70;35.18;96380.22;4961594;28;20037;-76
2023/04/02 06:34:44;;;;;;;4.53;2.33;;;;;;;24.11;34.30;96386.47;4977547;28;20037;-76
2023/04/02 06:37:23;;;;;;;10.10;3.45;;;;;;;24.53;34.09;96373.47;4977239;28;20429;-75
2023/04/02 06:39:49;;;;;;;3.70;1.75;;;;;;;24.09;34.05;96357.63;4973747;28;20038;-77
2023/04/02 06:42:26;;;;;;;2.85;1.70;;;;;;;24.52;34.34;96378.06;4977310;28;20026;-77
2023/04/02 06:44:52;;;;;;;4.15;2.28;;;;;;;24.39;33.40;96355.38;4955992;28;20029;-76
2023/04/02 06:47:17;;;;;;;3.30;2.00;;;;;;;24.73;33.20;96374.31;4977310;28;20038;-76
2023/04/02 06:49:50;;;;;;;2.25;1.50;;;;;;;25.21;31.95;96367.50;4976876;28;20433;-76
2023/04/02 06:52:24;;;;;;;9.80;5.63;;;;;;;24.69;32.39;96342.94;4960919;28;20486;-76
2023/04/02 06:54:50;;;;;;;2.05;1.60;;;;;;;25.18;31.93;96359.72;4960822;28;20034;-77
2023/04/02 06:57:15;;;;;;;4.03;1.63;;;;;;;25.10;32.27;96346.25;4994479;28;20521;-77
2023/04/02 06:59:41;;;;;;;31.80;17.23;;;;;;;24.80;31.91;96331.34;4969002;28;20038;-76
2023/04/02 07:02:29;;;;;;;4.65;2.40;;;;;;;25.49;31.23;96353.53;4976798;28;20057;-75
2023/04/02 07:05:01;;;;;;;4.13;2.75;;;;;;;26.21;30.98;96377.00;4960924;28;20498;-76
2023/04/02 07:07:27;;;;;;;2.10;1.30;;;;;;;26.27;29.96;96349.50;4977192;28;20030;-74
2023/04/02 07:09:52;;;;;;;2.35;0.90;;;;;;;26.14;30.15;96360.56;4977080;28;20045;-76
2023/04/02 07:12:22;;;;;;;2.30;1.38;;;;;;;26.30;30.01;96351.00;4960689;28;20101;-75
2023/04/02 07:14:48;;;;;;;3.40;1.00;;;;;;;27.16;28.93;96359.31;4961012;28;20409;-76
2023/04/02 07:17:16;;;;;;;1.65;1.23;;;;;;;26.34;29.93;96344.81;4976905;28;20030;-77
2023/04/02 07:19:44;;;;;;;2.28;1.13;;;;;;;26.30;29.33;96343.59;4960769;28;20080;-78
2023/04/02 07:22:10;;;;;;;0.60;0.60;;;;;;;25.69;29.85;96329.63;4960451;28;20027;-76
2023/04/02 07:24:36;;;;;;;4.22;0.88;;;;;;;25.71;30.48;96338.47;4976808;28;20030;-77
2023/04/02 07:27:01;;;;;;;1.10;1.00;;;;;;;25.93;30.42;96344.47;4944920;28;20053;-76
2023/04/02 07:29:27;;;;;;;1.83;1.23;;;;;;;25.93;30.00;96340.88;4976407;28;20525;-82
2023/04/02 07:31:52;;;;;;;14.63;7.80;;;;;;;25.64;30.25;96342.28;4976874;28;20022;-84
2023/04/02 07:34:18;;;;;;;4.90;3.10;;;;;;;25.57;29.71;96330.53;4965263;28;20494;-83
2023/04/02 07:36:44;;;;;;;13.52;6.82;;;;;;;26.54;28.71;96355.66;4974553;28;20100;-80
2023/04/02 07:39:11;;;;;;;4.97;3.55;;;;;;;25.76;29.68;96318.63;4958978;28;20033;-79
2023/04/02 07:41:54;;;;;;;4.13;2.65;;;;;;;26.57;29.34;96343.38;4959826;28;20410;-76
2023/04/02 07:44:20;;;;;;;4.85;2.90;;;;;;;26.80;28.75;96341.72;4957775;28;20039;-79
2023/04/02 07:46:45;;;;;;;0.85;0.80;;;;;;;26.22;28.78;96313.69;4959905;28;20168;-76
2023/04/02 07:49:11;;;;;;;4.63;3.50;;;;;;;26.99;28.34;96337.09;4977821;28;20030;-74
2023/04/02 07:51:37;;;;;;;3.35;2.50;;;;;;;26.90;27.94;96321.97;4959978;28;20180;-76
2023/04/02 07:54:03;;;;;;;16.55;8.13;;;;;;;27.11;28.31;96337.16;4978091;28;20026;-78
2023/04/02 07:56:29;;;;;;;2.28;0.93;;;;;;;27.14;27.65;96320.25;4958716;28;20540;-78
2023/04/02 07:58:55;;;;;;;1.25;0.80;;;;;;;27.10;27.81;96333.59;4959556;28;20058;-82
2023/04/02 08:01:23;;;;;;;3.58;2.80;;;;;;;26.98;28.33;96329.91;4976995;28;20026;-79
2023/04/02 08:03:49;;;;;;;3.28;2.45;;;;;;;27.45;27.79;96342.94;4984254;28;20037;-78
2023/04/02 08:06:15;;;;;;;5.00;2.72;;;;;;;28.63;27.04;96356.09;4963939;28;20021;-76
2023/04/02 08:08:41;;;;;;;3.33;2.35;;;;;;;28.95;26.65;96358.28;4981493;28;20030;-77
2023/04/02 08:11:07;;;;;;;2.47;1.10;;;;;;;29.10;25.90;96357.84;4982772;28;20026;-77
2023/04/02 08:13:33;;;;;;;4.32;2.80;;;;;;;27.90;26.93;96326.91;4986711;28;20116;-79
2023/04/02 08:15:59;;;;;;;3.40;2.13;;;;;;;28.07;27.32;96329.88;4973585;28;20042;-78
2023/04/02 08:18:25;;;;;;;1.25;1.10;;;;;;;28.65;26.83;96359.47;4964434;28;20117;-76
2023/04/02 08:20:52;;;;;;;7.65;1.27;;;;;;;29.79;25.69;96375.34;4960417;28;20121;-77
2023/04/02 08:23:17;;;;;;;27.05;13.15;;;;;;;30.66;24.30;96381.50;4975780;28;20034;-76
2023/04/02 08:25:44;;;;;;;13.13;7.15;;;;;;;30.41;24.72;96376.38;4959757;28;20121;-77
2023/04/02 08:28:10;;;;;;;3.88;1.73;;;;;;;31.04;24.25;96376.13;4959548;28;20022;-76
2023/04/02 08:30:36;;;;;;;2.45;1.98;;;;;;;29.89;24.75;96339.75;4956424;28;20031;-77
2023/04/02 08:33:01;;;;;;;0.88;0.85;;;;;;;30.56;23.81;96366.44;4956710;28;20383;-75
2023/04/02 08:35:27;;;;;;;1.23;1.02;;;;;;;29.92;24.83;96340.09;4968049;28;20061;-76
2023/04/02 08:37:53;;;;;;;1.08;0.98;;;;;;;30.31;24.55;96354.91;4959661;28;20494;-76
2023/04/02 08:40:33;;;;;;;16.27;3.08;;;;;;;29.36;26.24;96335.31;4975524;28;20034;-76
2023/04/02 08:43:31;;;;;;;2.35;1.15;;;;;;;27.37;27.21;96280.03;4975347;28;20062;-76
2023/04/02 08:46:19;;;;;;;2.47;1.50;;;;;;;29.23;26.46;96354.81;4989204;28;20041;-76
2023/04/02 08:48:50;;;;;;;5.45;1.30;;;;;;;29.59;25.65;96343.50;4961370;28;20042;-75
2023/04/02 08:51:22;;;;;;;2.80;1.90;;;;;;;29.90;25.38;96357.97;4939844;28;20089;-76
2023/04/02 08:53:49;;;;;;;0.55;0.52;;;;;;;29.45;25.35;96333.00;4955908;28;20035;-77
2023/04/02 08:56:19;;;;;;;8.30;2.03;;;;;;;29.02;26.04;96316.84;4955471;28;20060;-75
2023/04/02 08:58:58;;;;;;;2.50;0.63;;;;;;;27.62;27.62;96298.34;4959307;28;20030;-76
2023/04/02 09:01:24;;;;;;;1.38;0.90;;;;;;;24.74;29.72;96250.97;4975297;28;20802;-75
2023/04/02 09:03:51;;;;;;;2.13;1.58;;;;;;;23.95;31.51;96277.53;4975104;28;20117;-77
2023/04/02 09:06:18;;;;;;;2.08;0.80;;;;;;;22.82;32.57;96263.75;4974722;28;20030;-77
2023/04/02 09:08:46;;;;;;;2.63;0.70;;;;;;;22.49;33.21;96270.84;4975004;28;20037;-75
2023/04/02 09:11:24;;;;;;;4.60;2.42;;;;;;;21.28;35.39;96265.63;4958567;28;20120;-75
2023/04/02 09:13:55;;;;;;;3.53;0.90;;;;;;;21.75;35.39;96302.31;4974865;28;20414;-76
2023/04/02 09:16:45;;;;;;;5.97;1.50;;;;;;;21.66;35.34;96293.41;4957290;28;20022;-76
2023/04/02 09:19:19;;;;;;;1.90;1.13;;;;;;;21.07;36.73;96290.84;4974842;28;20026;-76
2023/04/02 09:22:08;;;;;;;2.95;1.02;;;;;;;22.45;34.85;96326.84;4974687;28;20026;-75
2023/04/02 09:24:34;;;;;;;7.72;1.60;;;;;;;23.45;33.54;96338.97;4958918;28;20037;-76
2023/04/02 09:26:59;;;;;;;0.85;0.70;;;;;;;23.55;33.00;96333.13;4958775;28;20540;-75
2023/04/02 09:29:28;;;;;;;2.88;0.90;;;;;;;24.10;32.28;96343.75;4955372;28;20060;-77
2023/04/02 09:32:04;;;;;;;0.85;0.80;;;;;;;24.22;32.23;96331.19;4958240;28;20069;-76
2023/04/02 09:34:32;;;;;;;4.88;2.15;;;;;;;24.98;33.00;96358.91;4974643;28;20497;-77
2023/04/02 09:37:17;;;;;;;1.60;1.00;;;;;;;24.44;31.42;96328.25;4958024;28;20049;-76
2023/04/02 09:39:42;;;;;;;28.58;20.52;;;;;;;24.76;30.69;96327.38;4972267;28;20074;-76
2023/04/02 09:42:28;;;;;;;9.80;4.45;;;;;;;23.70;32.18;96303.75;4974330;28;20038;-76
2023/04/02 09:45:11;;;;;;;8.38;4.63;;;;;;;21.03;35.02;96254.22;4974213;28;20072;-76
2023/04/02 09:47:38;;;;;;;11.25;5.15;;;;;;;20.51;36.62;96278.00;4974391;28;20026;-76
2023/04/02 09:50:14;;;;;;;3.83;1.00;;;;;;;20.98;36.89;96304.72;4958148;28;20122;-76
2023/04/02 09:52:41;;;;;;;2.67;1.35;;;;;;;21.06;36.84;96302.78;4974119;28;20413;-76
2023/04/02 09:55:16;;;;;;;2.13;1.40;;;;;;;20.69;36.82;96304.78;4973918;28;20054;-78
2023/04/02 09:57:42;;;;;;;2.72;0.70;;;;;;;20.19;36.67;96276.44;4950403;28;20069;-77
2023/04/02 10:00:25;;;;;;;1.70;0.90;;;;;;;19.90;37.67;96281.81;4958197;28;20069;-78
2023/04/02 10:03:11;;;;;;;3.17;1.38;;;;;;;19.81;38.57;96291.88;4974654;28;20469;-77
2023/04/02 10:05:36;;;;;;;2.28;1.25;;;;;;;20.24;37.48;96301.16;4974224;28;20032;-76
2023/04/02 10:08:17;;;;;;;5.20;1.00;;;;;;;20.25;37.07;96296.56;4974117;28;20120;-76
2023/04/02 10:10:47;;;;;;;1.60;1.27;;;;;;;21.99;35.20;96340.91;4958183;28;20034;-76
2023/04/02 10:13:20;;;;;;;2.35;0.55;;;;;;;24.11;32.20;96356.41;4974237;28;20025;-76
2023/04/02 10:15:53;;;;;;;1.35;0.88;;;;;;;25.61;30.61;96367.38;4991594;28;20445;-76
2023/04/02 10:18:56;;;;;;;5.32;0.52;;;;;;;26.95;28.23;96359.75;4958222;28;20053;-76
2023/04/02 10:21:26;;;;;;;0.82;0.50;;;;;;;26.72;27.03;96324.66;4974243;28;20026;-75
2023/04/02 10:23:53;;;;;;;2.53;0.95;;;;;;;26.14;27.07;96307.63;4991855;28;20031;-75
2023/04/02 10:26:37;;;;;;;1.63;0.80;;;;;;;26.20;27.79;96325.97;4958102;28;20429;-76
2023/04/02 10:30:01;;;;;;;15.23;9.90;;;;;;;25.99;28.38;96329.03;4974188;28;20030;-77
2023/04/02 10:32:36;;;;;;;1.50;1.10;;;;;;;25.46;28.80;96312.00;4932765;28;20034;-75
2023/04/02 10:35:04;;;;;;;1.00;0.90;;;;;;;25.67;28.64;96304.34;4974370;28;20031;-75
2023/04/02 10:37:44;;;;;;;2.45;0.98;;;;;;;24.84;29.39;96294.34;4989473;28;20042;-74
2023/04/02 10:40:20;;;;;;;3.38;0.90;;;;;;;24.33;30.13;96304.28;4978214;28;20441;-76
2023/04/02 10:43:13;;;;;;;1.67;0.70;;;;;;;25.17;29.72;96319.72;4977703;28;20034;-76
2023/04/02 10:45:44;;;;;;;0.70;0.60;;;;;;;26.85;28.74;96341.91;4994965;28;20032;-76
2023/04/02 10:48:24;;;;;;;3.47;0.90;;;;;;;27.30;27.19;96339.72;4995329;28;20022;-76
2023/04/02 10:51:00;;;;;;;55.30;31.92;;;;;;;28.18;26.39;96336.50;4942378;28;20056;-77
2023/04/02 10:54:11;;;;;;;0.52;0.50;;;;;;;26.99;26.85;96306.91;4959049;28;20110;-76
2023/04/02 10:56:37;;;;;;;0.65;0.63;;;;;;;26.17;26.95;96286.13;4977153;28;20045;-75
2023/04/02 10:59:23;;;;;;;0.57;0.57;;;;;;;27.97;25.04;96324.06;4958200;28;20031;-76
2023/04/02 11:01:50;;;;;;;0.50;0.50;;;;;;;28.51;24.35;96332.16;4960295;28;20033;-75
2023/04/02 11:04:42;;;;;;;0.60;0.60;;;;;;;28.60;25.00;96324.38;4960765;28;20129;-76
2023/04/02 11:07:16;;;;;;;0.60;0.55;;;;;;;28.44;25.16;96292.88;4993921;28;20042;-77
2023/04/02 11:09:44;;;;;;;5.63;3.58;;;;;;;28.64;25.11;96306.28;4960907;28;20073;-76
2023/04/02 11:12:23;;;;;;;1.85;1.08;;;;;;;28.37;24.93;96294.06;4961251;28;20410;-77
2023/04/02 11:14:50;;;;;;;0.93;0.85;;;;;;;27.56;25.62;96278.13;4977133;28;20129;-77
2023/04/02 11:17:16;;;;;;;3.65;1.65;;;;;;;27.13;26.10;96261.75;4960983;28;20038;-76
2023/04/02 11:19:42;;;;;;;0.82;0.70;;;;;;;27.39;26.14;96286.13;4977343;28;20034;-75
2023/04/02 11:22:16;;;;;;;0.43;0.40;;;;;;;26.50;26.95;96260.28;4960720;28;20044;-78
2023/04/02 11:24:53;;;;;;;20.27;11.93;;;;;;;28.40;25.91;96302.69;4976624;28;20125;-75
2023/04/02 11:27:35;;;;;;;4.57;3.55;;;;;;;28.95;24.80;96292.19;4976944;28;20023;-76
2023/04/02 11:30:21;;;;;;;0.70;0.68;;;;;;;29.48;24.21;96303.03;4960713;28;20505;-76
2023/04/02 11:32:50;;;;;;;1.63;0.93;;;;;;;29.38;25.00;96299.22;4960232;28;20038;-76
2023/04/02 11:35:31;;;;;;;0.93;0.75;;;;;;;26.83;27.65;96244.34;4959321;28;20098;-78
2023/04/02 11:37:59;;;;;;;0.98;0.75;;;;;;;26.47;28.50;96253.38;4972468;28;20045;-78
2023/04/02 11:40:40;;;;;;;2.85;1.65;;;;;;;26.56;29.32;96262.97;4978605;28;20147;-76
2023/04/02 11:43:34;;;;;;;3.28;1.15;;;;;;;26.99;28.09;96259.38;4987706;28;20100;-83
2023/04/02 11:46:28;;;;;;;1.10;1.00;;;;;;;25.51;29.76;96241.84;4976839;28;20034;-85
2023/04/02 11:48:55;;;;;;;2.88;1.10;;;;;;;24.70;29.62;96218.81;4992943;28;20085;-87
2023/04/02 11:51:21;;;;;;;1.27;0.88;;;;;;;26.09;29.15;96269.91;4959867;28;20027;-76
2023/04/02 11:53:51;;;;;;;1.75;1.00;;;;;;;27.38;26.86;96269.88;4991732;28;20030;-78
2023/04/02 11:56:42;;;;;;;4.40;1.27;;;;;;;26.25;28.30;96241.13;4959636;28;20106;-80
2023/04/02 11:59:16;;;;;;;0.75;0.70;;;;;;;26.92;27.69;96253.97;4959371;28;20034;-78
2023/04/02 12:02:37;;;;;;;1.75;1.65;;;;;;;26.42;28.32;96241.41;4963939;28;20027;-79
2023/04/02 12:05:15;;;;;;;2.58;1.05;;;;;;;24.76;29.07;96209.75;4950571;28;20038;-78